Time;durP1;ratioP1;P1;durP2;ratioP2;P2;SDS_P1;SDS_P2;PMS_P1;PMS_P2;Temp;Humidity;BMP_temperature;BMP_pressure;BME280_temperature;BME280_humidity;BME280_pressure;Samples;Min_cycle;Max_cycle;Signal;HPM_P1;HPM_P2
2021/10/09 00:02:12;;;;;;;;;;;;;;;3.48;61.61;101714.97;1340681;93;20929;-89
2021/10/09 00:04:38;;;;;;;;;;;;;;;3.44;61.17;101713.39;1336946;92;20300;-89
2021/10/09 00:07:04;;;;;;;;;;;;;;;3.44;61.03;101708.63;1365663;92;20249;-89
2021/10/09 00:09:30;;;;;;;;;;;;;;;3.42;61.50;101706.06;1369676;89;20324;-89
2021/10/09 00:11:57;;;;;;;;;;;;;;;3.41;62.29;101703.06;1369668;89;20241;-89
2021/10/09 00:14:23;;;;;;;;;;;;;;;3.40;61.69;101696.14;1371375;89;20844;-89
2021/10/09 00:16:49;;;;;;;;;;;;;;;3.38;61.79;101697.97;1380803;90;20248;-89
2021/10/09 00:19:15;;;;;;;;;;;;;;;3.35;61.95;101696.81;1326466;93;20246;-89
2021/10/09 00:21:45;;;;;;;;;;;;;;;3.37;62.99;101696.29;1366664;90;20250;-88
2021/10/09 00:24:14;;;;;;;;;;;;;;;3.35;62.38;101692.88;1367181;90;20301;-88
2021/10/09 00:26:40;;;;;;;;;;;;;;;3.29;61.80;101701.86;1359553;90;20251;-88
2021/10/09 00:29:06;;;;;;;;;;;;;;;3.27;61.43;101693.69;1342857;92;20773;-89
2021/10/09 00:31:32;;;;;;;;;;;;;;;3.24;61.97;101692.52;1340840;92;20253;-89
2021/10/09 00:33:58;;;;;;;;;;;;;;;3.23;62.75;101693.45;1366546;90;20748;-89
2021/10/09 00:36:25;;;;;;;;;;;;;;;3.23;62.96;101693.45;1367559;90;20324;-90
2021/10/09 00:38:51;;;;;;;;;;;;;;;3.14;62.54;101689.02;1366406;90;20257;-89
2021/10/09 00:41:16;;;;;;;;;;;;;;;3.13;63.08;101692.53;1366572;90;21168;-89
2021/10/09 00:43:42;;;;;;;;;;;;;;;3.10;62.35;101690.05;1366367;90;20295;-89
2021/10/09 00:46:08;;;;;;;;;;;;;;;3.12;62.18;101688.69;1366519;90;20257;-89
2021/10/09 00:48:35;;;;;;;;;;;;;;;3.14;62.53;101689.02;1366610;90;20287;-89
2021/10/09 00:51:03;;;;;;;;;;;;;;;3.17;62.25;101690.65;1366561;90;20416;-90
2021/10/09 00:53:29;;;;;;;;;;;;;;;3.18;63.00;101684.95;1366501;90;20234;-90
2021/10/09 00:55:56;;;;;;;;;;;;;;;3.20;62.28;101689.20;1366275;90;20339;-90
2021/10/09 00:58:22;;;;;;;;;;;;;;;3.22;62.64;101685.19;1354159;90;20230;-89
2021/10/09 01:00:49;;;;;;;;;;;;;;;3.18;61.82;101683.64;1366543;90;20258;-90
2021/10/09 01:03:15;;;;;;;;;;;;;;;3.14;62.31;101682.48;1366630;90;20382;-88
2021/10/09 01:05:41;;;;;;;;;;;;;;;3.12;62.89;101684.30;1365132;90;20227;-90
2021/10/09 01:08:07;;;;;;;;;;;;;;;3.05;62.63;101679.41;1334588;92;20275;-88
2021/10/09 01:10:33;;;;;;;;;;;;;;;3.05;63.47;101684.63;1348236;91;20252;-88
2021/10/09 01:13:03;;;;;;;;;;;;;;;3.01;62.74;101676.08;1340673;92;20863;-88
2021/10/09 01:15:33;;;;;;;;;;;;;;;2.99;63.84;101679.22;1330351;91;20877;-89
2021/10/09 01:18:06;;;;;;;;;;;;;;;2.99;63.54;101684.91;1367932;89;20256;-89
2021/10/09 01:20:48;;;;;;;;;;;;;;;2.95;63.52;101673.74;1367800;91;20264;-88
2021/10/09 01:23:14;;;;;;;;;;;;;;;2.92;63.72;101678.65;1365796;90;20250;-88
2021/10/09 01:25:40;;;;;;;;;;;;;;;2.92;63.85;101679.11;1368226;90;21326;-89
2021/10/09 01:28:07;;;;;;;;;;;;;;;2.85;64.83;101678.55;1368014;90;20242;-88
2021/10/09 01:30:33;;;;;;;;;;;;;;;2.85;64.35;101675.93;1368021;90;20954;-88
2021/10/09 01:33:00;;;;;;;;;;;;;;;2.80;64.22;101667.89;1368110;90;20263;-88
2021/10/09 01:35:26;;;;;;;;;;;;;;;2.76;65.21;101666.31;1368180;90;20272;-90
2021/10/09 01:37:52;;;;;;;;;;;;;;;2.70;65.51;101668.30;1355167;91;20302;-89
2021/10/09 01:40:18;;;;;;;;;;;;;;;2.67;64.50;101669.71;1367875;90;20347;-89
2021/10/09 01:42:44;;;;;;;;;;;;;;;2.58;64.51;101664.05;1368089;90;20220;-89
2021/10/09 01:45:10;;;;;;;;;;;;;;;2.54;65.16;101671.17;1368282;90;20272;-89
2021/10/09 01:47:40;;;;;;;;;;;;;;;2.49;65.04;101663.98;1368148;90;20741;-86
2021/10/09 01:50:07;;;;;;;;;;;;;;;2.48;66.24;101669.67;1373884;91;20246;-85
2021/10/09 01:52:33;;;;;;;;;;;;;;;2.43;65.64;101669.47;1372704;90;20346;-85
2021/10/09 01:54:59;;;;;;;;;;;;;;;2.43;66.04;101668.17;1373463;90;20805;-88
2021/10/09 01:57:25;;;;;;;;;;;;;;;2.38;66.16;101656.59;1373309;89;20233;-88
2021/10/09 01:59:51;;;;;;;;;;;;;;;2.35;66.04;101657.19;1373444;90;20344;-88
2021/10/09 02:02:17;;;;;;;;;;;;;;;2.33;66.20;101657.70;1373426;89;20254;-88
2021/10/09 02:04:43;;;;;;;;;;;;;;;2.32;65.87;101658.62;1373321;89;20382;-87
2021/10/09 02:07:14;;;;;;;;;;;;;;;2.29;66.98;101660.06;1373303;89;20299;-87
2021/10/09 02:09:37;;;;;;;;;;;;;;;2.22;67.12;101654.25;1373027;91;20314;-90
2021/10/09 02:12:03;;;;;;;;;;;;;;;2.23;66.45;101653.33;1373337;89;20745;-90
2021/10/09 02:14:50;;;;;;;;;;;;;;;2.21;66.47;101653.38;1376665;88;20373;-89
2021/10/09 02:28:00;;;;;;;;;;;;;;;2.12;65.90;101652.45;1358356;91;20746;-89
2021/10/09 02:30:26;;;;;;;;;;;;;;;2.11;66.70;101652.08;1359610;91;20337;-90
2021/10/09 02:32:52;;;;;;;;;;;;;;;2.12;67.07;101656.84;1377923;89;20254;-89
2021/10/09 02:35:18;;;;;;;;;;;;;;;2.11;66.38;101653.38;1378153;89;20746;-89
2021/10/09 02:37:44;;;;;;;;;;;;;;;2.11;67.85;101644.24;1377867;90;20752;-89
2021/10/09 02:40:11;;;;;;;;;;;;;;;2.12;66.67;101648.55;1377959;89;20232;-89
2021/10/09 02:42:37;;;;;;;;;;;;;;;2.05;67.14;101645.80;1363657;91;20347;-89
2021/10/09 02:45:03;;;;;;;;;;;;;;;2.06;66.26;101651.41;1377920;89;20299;-88
2021/10/09 02:47:29;;;;;;;;;;;;;;;2.04;67.73;101649.31;1377943;89;20346;-88
2021/10/09 02:49:55;;;;;;;;;;;;;;;2.04;66.85;101650.61;1377997;89;20254;-88
2021/10/09 02:52:21;;;;;;;;;;;;;;;2.03;67.05;101648.92;1377997;89;20723;-88
2021/10/09 02:54:47;;;;;;;;;;;;;;;2.04;67.09;101650.61;1378028;89;20246;-89
2021/10/09 02:57:13;;;;;;;;;;;;;;;2.02;67.52;101651.16;1377855;89;20261;-89
2021/10/09 02:59:39;;;;;;;;;;;;;;;2.04;67.07;101653.23;1378040;89;20768;-88
2021/10/09 03:02:05;;;;;;;;;;;;;;;2.03;67.48;101648.92;1378230;89;20239;-89
2021/10/09 03:04:31;;;;;;;;;;;;;;;2.03;66.81;101652.38;1377988;89;20351;-90
2021/10/09 03:06:57;;;;;;;;;;;;;;;2.02;67.12;101647.24;1378050;89;20343;-90
2021/10/09 03:09:23;;;;;;;;;;;;;;;2.03;66.95;101654.16;1378017;89;20246;-88
2021/10/09 03:11:49;;;;;;;;;;;;;;;2.02;67.50;101652.46;1377962;89;20723;-89
2021/10/09 03:14:15;;;;;;;;;;;;;;;1.99;66.98;101652.59;1378100;89;20224;-89
2021/10/09 03:16:41;;;;;;;;;;;;;;;1.96;67.80;101653.56;1378219;89;20276;-91
2021/10/09 03:19:07;;;;;;;;;;;;;;;1.94;68.17;101656.68;1363418;91;20246;-90
2021/10/09 03:21:33;;;;;;;;;;;;;;;1.89;68.07;101657.31;1377991;89;20238;-90
2021/10/09 03:23:59;;;;;;;;;;;;;;;1.87;68.39;101658.28;1378121;89;20270;-91
2021/10/09 03:26:25;;;;;;;;;;;;;;;1.76;67.68;101651.75;1378551;89;20395;-90
2021/10/09 03:28:50;;;;;;;;;;;;;;;1.72;67.71;101655.38;1377949;89;20246;-90
2021/10/09 03:31:16;;;;;;;;;;;;;;;1.64;68.17;101660.08;1378068;89;20239;-91
2021/10/09 03:33:42;;;;;;;;;;;;;;;1.68;68.38;101655.11;1369219;89;20257;-91
2021/10/09 03:36:08;;;;;;;;;;;;;;;1.70;67.69;101658.52;1369154;89;20219;-91
2021/10/09 03:38:35;;;;;;;;;;;;;;;1.71;68.92;101659.37;1344478;92;20343;-89
2021/10/09 03:41:09;;;;;;;;;;;;;;;1.72;68.44;101658.45;1343175;93;20320;-90
2021/10/09 03:43:36;;;;;;;;;;;;;;;1.72;68.99;101654.07;1376051;89;20241;-89
2021/10/09 03:46:13;;;;;;;;;;;;;;;1.68;68.53;101652.97;1372953;89;20926;-90
2021/10/09 03:53:51;;;;;;;;;;;;;;;1.65;68.75;101657.84;1383198;89;20271;-90
2021/10/09 03:56:17;;;;;;;;;;;;;;;1.62;69.22;101659.27;1383196;89;20300;-90
2021/10/09 03:58:42;;;;;;;;;;;;;;;1.60;68.97;101661.09;1383513;89;20322;-91
2021/10/09 04:01:08;;;;;;;;;;;;;;;1.60;69.15;101661.55;1382837;89;20249;-90
2021/10/09 04:03:34;;;;;;;;;;;;;;;1.56;69.35;101664.73;1368567;90;20306;-89
2021/10/09 04:06:00;;;;;;;;;;;;;;;1.56;69.32;101655.14;1383414;89;20294;-90
2021/10/09 04:08:26;;;;;;;;;;;;;;;1.56;70.18;101656.91;1378064;89;20319;-90
2021/10/09 04:10:52;;;;;;;;;;;;;;;1.58;69.55;101657.67;1366319;89;20266;-90
2021/10/09 04:13:18;;;;;;;;;;;;;;;1.54;68.89;101654.80;1347206;92;20253;-90
2021/10/09 04:15:44;;;;;;;;;;;;;;;1.53;69.86;101655.72;1372589;90;20778;-92
2021/10/09 04:18:10;;;;;;;;;;;;;;;1.54;69.51;101657.41;1355842;91;20227;-92
2021/10/09 04:20:38;;;;;;;;;;;;;;;1.53;68.97;101659.64;1368772;90;20855;-93
2021/10/09 04:23:04;;;;;;;;;;;;;;;1.53;69.45;101654.42;1364277;90;20237;-91
2021/10/09 04:25:30;;;;;;;;;;;;;;;1.53;69.36;101657.03;1364532;91;20755;-93
2021/10/09 04:27:56;;;;;;;;;;;;;;;1.50;70.16;101658.45;1368939;90;20242;-92
2021/10/09 04:30:22;;;;;;;;;;;;;;;1.46;70.81;101662.08;1368681;90;20398;-88
2021/10/09 04:32:48;;;;;;;;;;;;;;;1.46;70.85;101664.68;1355858;90;20802;-89
2021/10/09 04:35:14;;;;;;;;;;;;;;;1.44;70.25;101661.27;1356505;91;20230;-90
2021/10/09 04:37:40;;;;;;;;;;;;;;;1.41;70.31;101663.57;1365160;91;20362;-91
2021/10/09 04:40:06;;;;;;;;;;;;;;;1.37;70.40;101656.75;1368683;90;21146;-90
2021/10/09 04:42:32;;;;;;;;;;;;;;;1.38;70.60;101661.52;1368615;90;20308;-92
2021/10/09 04:44:58;;;;;;;;;;;;;;;1.36;70.95;101660.28;1368826;90;20250;-88
2021/10/09 04:47:24;;;;;;;;;;;;;;;1.35;70.85;101668.56;1368657;90;20399;-90
2021/10/09 04:49:50;;;;;;;;;;;;;;;1.38;70.09;101661.52;1368642;90;20748;-89
2021/10/09 04:52:16;;;;;;;;;;;;;;;1.39;69.76;101669.75;1368715;90;20301;-90
2021/10/09 04:54:42;;;;;;;;;;;;;;;1.39;69.58;101669.30;1360812;90;20301;-89
2021/10/09 04:57:08;;;;;;;;;;;;;;;1.43;69.47;101668.72;1364509;90;20282;-89
2021/10/09 04:59:34;;;;;;;;;;;;;;;1.46;69.78;101665.98;1331192;93;20388;-90
2021/10/09 05:01:59;;;;;;;;;;;;;;;1.47;71.10;101669.02;1351181;91;20259;-90
2021/10/09 05:04:25;;;;;;;;;;;;;;;1.50;70.99;101668.89;1350714;91;20949;-92
2021/10/09 05:06:51;;;;;;;;;;;;;;;1.49;70.80;101664.56;1331645;93;20321;-88
2021/10/09 05:09:17;;;;;;;;;;;;;;;1.50;70.74;101675.41;1331483;92;20239;-89
2021/10/09 05:11:43;;;;;;;;;;;;;;;1.51;71.04;101663.59;1349890;91;20817;-90
2021/10/09 05:14:09;;;;;;;;;;;;;;;1.55;70.50;101666.93;1356426;91;20259;-90
2021/10/09 05:16:35;;;;;;;;;;;;;;;1.59;70.85;101664.62;1365649;90;20264;-90
2021/10/09 05:19:02;;;;;;;;;;;;;;;1.62;70.73;101665.80;1350373;91;20266;-89
2021/10/09 05:21:28;;;;;;;;;;;;;;;1.66;70.97;101668.67;1350884;91;20319;-89
2021/10/09 05:23:54;;;;;;;;;;;;;;;1.69;70.51;101668.55;1331089;93;20240;-88
2021/10/09 05:26:20;;;;;;;;;;;;;;;1.73;70.17;101671.45;1350350;91;20750;-87
2021/10/09 05:28:47;;;;;;;;;;;;;;;1.83;69.74;101677.61;1337867;92;20245;-89
2021/10/09 05:31:23;;;;;;;;;;;;;;;1.89;70.00;101678.66;1316868;94;20774;-90
2021/10/09 05:33:49;;;;;;;;;;;;;;;1.97;69.08;101676.14;1328992;92;20246;-89
2021/10/09 05:36:15;;;;;;;;;;;;;;;2.06;68.80;101676.22;1368180;90;20807;-89
2021/10/09 05:38:41;;;;;;;;;;;;;;;2.17;68.77;101685.77;1352666;90;20266;-89
2021/10/09 05:41:07;;;;;;;;;;;;;;;2.26;68.41;101682.78;1331768;93;20247;-89
2021/10/09 05:43:33;;;;;;;;;;;;;;;2.34;68.20;101680.32;1350153;92;20222;-89
2021/10/09 05:45:59;;;;;;;;;;;;;;;2.44;68.12;101688.15;1331064;93;20336;-91
2021/10/09 05:48:26;;;;;;;;;;;;;;;2.51;68.33;101686.15;1350321;92;20347;-92
2021/10/09 05:56:24;;;;;;;;;;;;;;;2.81;67.49;101690.50;1359696;91;20785;-90
2021/10/09 05:58:55;;;;;;;;;;;;;;;2.90;67.19;101694.02;1329796;93;20322;-90
2021/10/09 06:42:28;;;;;;;;;;;;;;;5.28;60.01;101701.63;1382990;89;20345;-84
2021/10/09 07:19:20;;;;;;;;;;;;;;;7.56;50.58;101711.14;1391230;85;20296;-90
2021/10/09 07:21:46;;;;;;;;;;;;;;;7.80;50.08;101709.23;1352327;92;20880;-90
2021/10/09 07:24:15;;;;;;;;;;;;;;;7.95;50.20;101710.03;1356902;91;20290;-90
2021/10/09 07:26:43;;;;;;;;;;;;;;;8.17;50.49;101706.38;1377712;86;20326;-91
2021/10/09 07:31:44;;;;;;;;;;;;;;;8.42;46.55;101700.33;1376514;87;20337;31
2021/10/09 07:39:16;;;;;;;;;;;;;;;8.91;47.77;101709.35;1395473;86;21867;31
2021/10/09 07:41:51;;;;;;;;;;;;;;;9.14;47.37;101714.36;1368408;86;20395;31
2021/10/09 07:46:52;;;;;;;;;;;;;;;9.41;45.61;101706.31;1361930;88;21872;31
2021/10/09 07:49:22;;;;;;;;;;;;;;;9.53;45.01;101707.23;1377511;87;23322;31
2021/10/09 07:51:48;;;;;;;;;;;;;;;9.70;45.03;101711.67;1390343;87;20244;-91
2021/10/09 07:54:14;;;;;;;;;;;;;;;9.83;44.29;101714.26;1387102;89;20258;-90
2021/10/09 07:56:40;;;;;;;;;;;;;;;10.03;45.04;101710.16;1388050;88;20217;-90
2021/10/09 07:59:06;;;;;;;;;;;;;;;10.22;43.80;101717.59;1388457;89;20332;-91
2021/10/09 08:01:32;;;;;;;;;;;;;;;10.36;43.30;101716.61;1385636;89;20260;-90
2021/10/09 08:06:33;;;;;;;;;;;;;;;10.63;41.34;101720.77;1371460;89;21841;31
2021/10/09 08:08:59;;;;;;;;;;;;;;;10.60;40.82;101716.55;1389134;87;20283;-86
2021/10/09 08:13:54;;;;;;;;;;;;;;;10.86;39.62;101723.83;1375449;87;20262;31
2021/10/09 08:16:23;;;;;;;;;;;;;;;10.88;39.19;101729.02;1386471;86;21118;31
2021/10/09 08:18:52;;;;;;;;;;;;;;;10.74;39.38;101732.23;1366955;86;20326;31
2021/10/09 08:21:25;;;;;;;;;;;;;;;10.97;40.68;101726.98;1346948;87;20391;31
2021/10/09 08:24:00;;;;;;;;;;;;;;;11.19;41.79;101723.48;1393940;86;21258;31
2021/10/09 08:37:06;;;;;;;;;;;;;;;11.83;38.83;101726.83;1363033;88;21076;-89
2021/10/09 08:39:26;;;;;;;;;;;;;;;12.05;39.42;101726.77;1345070;89;20336;31
2021/10/09 08:44:32;;;;;;;;;;;;;;;12.26;36.41;101720.20;1398283;89;20247;-87
2021/10/09 08:46:58;;;;;;;;;;;;;;;12.34;37.12;101716.90;1393143;89;20798;-89
2021/10/09 08:49:25;;;;;;;;;;;;;;;12.45;37.29;101722.16;1377707;90;20166;-89
2021/10/09 08:51:51;;;;;;;;;;;;;;;12.57;36.02;101707.87;1392888;89;20240;-89
2021/10/09 08:54:17;;;;;;;;;;;;;;;12.78;37.57;101712.33;1393497;89;20203;-87
2021/10/09 08:56:47;;;;;;;;;;;;;;;12.96;36.94;101712.56;1392929;89;20189;-89
2021/10/09 08:59:20;;;;;;;;;;;;;;;13.09;35.41;101706.06;1392834;89;20196;-90
2021/10/09 09:04:31;;;;;;;;;;;;;;;13.45;33.63;101707.84;1353674;86;20360;31
2021/10/09 09:07:13;;;;;;;;;;;;;;;13.69;34.74;101698.66;1405502;88;20283;-91
2021/10/09 09:41:20;;;;;;;;;;;;;;;18.68;25.33;101688.50;1362890;91;20249;-90
2021/10/09 09:43:46;;;;;;;;;;;;;;;18.72;25.32;101689.31;1361953;91;20235;-92
2021/10/09 09:46:18;;;;;;;;;;;;;;;18.88;24.95;101683.12;1362480;91;20754;-91
2021/10/09 09:48:46;;;;;;;;;;;;;;;19.16;24.80;101685.36;1343447;93;20251;-89
2021/10/09 09:51:14;;;;;;;;;;;;;;;19.15;25.11;101683.19;1342921;93;20253;-90
2021/10/09 09:53:41;;;;;;;;;;;;;;;19.42;24.33;101684.25;1343771;93;20304;-89
2021/10/09 09:56:08;;;;;;;;;;;;;;;19.39;25.07;101680.93;1343083;93;20245;-88
2021/10/09 09:58:42;;;;;;;;;;;;;;;19.74;24.72;101688.16;1343277;93;20252;-90
2021/10/09 10:01:09;;;;;;;;;;;;;;;19.44;23.22;101684.92;1343718;93;20230;-92
2021/10/09 10:03:36;;;;;;;;;;;;;;;19.60;25.14;101680.82;1344412;93;20914;-90
2021/10/09 10:06:04;;;;;;;;;;;;;;;18.84;23.80;101672.39;1359075;93;20265;-91
2021/10/09 10:08:30;;;;;;;;;;;;;;;19.30;24.16;101670.39;1362788;91;20255;-89
2021/10/09 10:10:57;;;;;;;;;;;;;;;19.34;25.14;101677.92;1361896;91;20234;-90
2021/10/09 10:13:28;;;;;;;;;;;;;;;19.64;23.82;101673.23;1362979;91;20312;-89
2021/10/09 10:15:55;;;;;;;;;;;;;;;19.33;22.88;101664.19;1360396;91;20242;-87
2021/10/09 10:18:48;;;;;;;;;;;;;;;18.79;24.58;101666.73;1360380;91;20241;-90
2021/10/09 10:21:17;;;;;;;;;;;;;;;19.36;25.58;101660.28;1359713;91;20234;-90
2021/10/09 10:23:45;;;;;;;;;;;;;;;19.49;23.83;101659.73;1360628;91;20256;-89
2021/10/09 10:26:23;;;;;;;;;;;;;;;19.54;24.35;101663.56;1368759;91;20373;-90
2021/10/09 10:28:55;;;;;;;;;;;;;;;19.69;24.34;101667.70;1378648;89;20262;-90
2021/10/09 10:31:22;;;;;;;;;;;;;;;19.37;23.33;101670.86;1378584;89;20269;-90
2021/10/09 10:33:56;;;;;;;;;;;;;;;19.60;23.79;101663.36;1376245;89;20346;-91
2021/10/09 10:36:46;;;;;;;;;;;;;;;19.43;24.63;101660.45;1377995;89;20238;-91
2021/10/09 10:39:17;;;;;;;;;;;;;;;19.08;23.53;101661.27;1378385;88;20276;-89
2021/10/09 10:42:11;;;;;;;;;;;;;;;19.51;24.41;101659.89;1367557;90;20241;-90
2021/10/09 10:47:53;;;;;;;;;;;;;;;19.29;25.09;101660.67;1357343;91;20264;-91
2021/10/09 10:51:02;;;;;;;;;;;;;;;19.28;22.87;101655.81;1356720;91;20257;-88
2021/10/09 10:53:48;;;;;;;;;;;;;;;19.22;23.43;101655.66;1356280;90;20250;-89
2021/10/09 10:56:13;;;;;;;;;;;;;;;19.10;24.29;101652.05;1356178;91;20799;-89
2021/10/09 10:58:39;;;;;;;;;;;;;;;19.57;23.32;101657.01;1356554;91;20256;-89
2021/10/09 11:01:23;;;;;;;;;;;;;;;19.56;23.64;101649.95;1357438;91;20822;-89
2021/10/09 11:03:50;;;;;;;;;;;;;;;19.55;23.79;101648.28;1357645;91;20242;-90
2021/10/09 11:06:17;;;;;;;;;;;;;;;19.72;24.93;101647.71;1359226;91;20332;-88
2021/10/09 11:08:45;;;;;;;;;;;;;;;19.50;24.89;101649.31;1358995;91;20235;-90
2021/10/09 11:11:11;;;;;;;;;;;;;;;19.48;24.47;101644.62;1358199;91;20764;-90
2021/10/09 11:13:39;;;;;;;;;;;;;;;19.78;24.22;101643.80;1339394;92;20249;-89
2021/10/09 11:16:06;;;;;;;;;;;;;;;19.79;23.54;101640.59;1357919;91;20256;-91
2021/10/09 11:18:52;;;;;;;;;;;;;;;19.73;23.40;101639.45;1357306;91;20301;-90
2021/10/09 11:21:19;;;;;;;;;;;;;;;20.01;23.83;101637.59;1357023;91;20234;-89
2021/10/09 11:23:54;;;;;;;;;;;;;;;20.14;22.70;101632.45;1357873;91;20256;-92
2021/10/09 11:26:22;;;;;;;;;;;;;;;20.37;23.66;101625.69;1357460;91;20263;-93
2021/10/09 11:29:01;;;;;;;;;;;;;;;20.26;23.54;101628.81;1357927;91;20881;-92
2021/10/09 11:31:28;;;;;;;;;;;;;;;20.16;23.89;101625.02;1362041;91;20239;-92
2021/10/09 11:33:56;;;;;;;;;;;;;;;20.21;25.06;101625.31;1363114;91;20301;-91
2021/10/09 11:36:23;;;;;;;;;;;;;;;20.29;25.08;101621.21;1366314;90;20249;-92
2021/10/09 11:38:56;;;;;;;;;;;;;;;20.76;24.42;101619.75;1344129;92;20368;-92
2021/10/09 11:41:24;;;;;;;;;;;;;;;20.42;23.71;101621.09;1359540;91;20845;-91
2021/10/09 11:43:52;;;;;;;;;;;;;;;20.85;22.44;101613.25;1390498;89;20309;-92
2021/10/09 11:55:26;;;;;;;;;;;;;;;21.20;22.15;101608.92;1379627;90;20284;-91
2021/10/09 11:57:53;;;;;;;;;;;;;;;20.88;22.68;101607.49;1380394;90;20239;-92
2021/10/09 12:00:33;;;;;;;;;;;;;;;20.94;23.06;101606.73;1363692;91;20284;-91
2021/10/09 12:03:18;;;;;;;;;;;;;;;21.52;22.51;101602.30;1362705;89;20242;-92
2021/10/09 12:05:55;;;;;;;;;;;;;;;21.18;22.88;101605.61;1347152;92;20268;-90
2021/10/09 12:08:26;;;;;;;;;;;;;;;21.40;22.33;101601.11;1393409;89;20240;-92
2021/10/09 12:11:10;;;;;;;;;;;;;;;21.62;21.73;101601.97;1383034;89;20263;-92
2021/10/09 12:14:06;;;;;;;;;;;;;;;21.50;22.95;101600.30;1389201;90;20716;-91
2021/10/09 12:16:37;;;;;;;;;;;;;;;21.35;21.55;101598.98;1388720;89;20262;-91
2021/10/09 12:19:16;;;;;;;;;;;;;;;21.45;21.59;101590.61;1389975;89;20255;-93
2021/10/09 12:21:55;;;;;;;;;;;;;;;21.02;22.57;101594.53;1387961;89;20297;-93
2021/10/09 12:24:26;;;;;;;;;;;;;;;20.99;23.23;101593.56;1384527;89;20306;-91
2021/10/09 12:27:01;;;;;;;;;;;;;;;21.27;22.07;101590.18;1380256;88;20419;-92
2021/10/09 12:29:27;;;;;;;;;;;;;;;21.32;22.77;101591.77;1382024;88;20248;-92
2021/10/09 12:31:53;;;;;;;;;;;;;;;21.16;22.20;101592.33;1385255;89;20253;-94
2021/10/09 12:34:25;;;;;;;;;;;;;;;21.37;23.42;101587.52;1381337;89;20821;-91
2021/10/09 12:37:10;;;;;;;;;;;;;;;21.72;22.01;101585.47;1384864;90;21267;-92
2021/10/09 12:39:36;;;;;;;;;;;;;;;22.20;22.35;101581.66;1386859;89;20271;-93
2021/10/09 12:42:02;;;;;;;;;;;;;;;21.50;21.53;101583.31;1378469;89;20299;-91
2021/10/09 12:44:28;;;;;;;;;;;;;;;21.89;21.81;101585.52;1377330;90;20241;-93
2021/10/09 12:46:54;;;;;;;;;;;;;;;21.45;21.63;101585.73;1377954;89;20328;-93
2021/10/09 12:49:20;;;;;;;;;;;;;;;22.07;21.79;101584.55;1378401;89;20777;-92
2021/10/09 12:51:48;;;;;;;;;;;;;;;21.82;22.27;101583.30;1378215;88;20256;-93
2021/10/09 12:54:17;;;;;;;;;;;;;;;22.08;21.96;101579.47;1378017;90;20263;-93
2021/10/09 12:56:42;;;;;;;;;;;;;;;21.93;21.12;101576.56;1377261;89;20813;-92
2021/10/09 12:59:08;;;;;;;;;;;;;;;21.41;21.58;101577.22;1378546;89;20345;-93
2021/10/09 13:01:34;;;;;;;;;;;;;;;22.17;21.76;101580.67;1378747;88;20306;-94
2021/10/09 13:04:00;;;;;;;;;;;;;;;22.36;21.77;101577.33;1377504;89;20842;-92
2021/10/09 13:06:26;;;;;;;;;;;;;;;21.68;20.84;101582.86;1378815;89;20231;-91
2021/10/09 13:08:52;;;;;;;;;;;;;;;22.73;20.81;101570.69;1377610;89;20264;-91
2021/10/09 13:11:24;;;;;;;;;;;;;;;23.18;20.16;101577.01;1377440;89;20855;-92
2021/10/09 13:13:48;;;;;;;;;;;;;;;23.08;19.73;101567.95;1376699;90;20224;-92
2021/10/09 13:16:15;;;;;;;;;;;;;;;22.94;20.12;101564.34;1377318;90;20283;-91
2021/10/09 13:18:41;;;;;;;;;;;;;;;22.70;20.57;101564.84;1376193;89;20261;-91
2021/10/09 13:21:07;;;;;;;;;;;;;;;23.08;20.89;101565.78;1375656;89;20754;-92
2021/10/09 13:23:34;;;;;;;;;;;;;;;22.77;20.49;101556.27;1375383;89;20806;-90
2021/10/09 13:26:00;;;;;;;;;;;;;;;23.06;21.06;101565.97;1375206;90;20857;-91
2021/10/09 13:28:26;;;;;;;;;;;;;;;23.39;20.76;101571.47;1375417;90;20317;-92
2021/10/09 13:30:53;;;;;;;;;;;;;;;22.79;20.34;101563.66;1375564;90;20308;-92
2021/10/09 13:33:19;;;;;;;;;;;;;;;22.62;20.67;101565.03;1375348;89;20256;-91
2021/10/09 13:35:45;;;;;;;;;;;;;;;21.79;20.53;101567.00;1375507;89;20248;-91
2021/10/09 13:38:13;;;;;;;;;;;;;;;21.93;21.21;101562.56;1370980;89;20242;-91
2021/10/09 13:40:40;;;;;;;;;;;;;;;21.62;21.55;101558.87;1370238;89;20277;-92
2021/10/09 13:43:11;;;;;;;;;;;;;;;21.43;22.66;101557.64;1377937;90;20253;-91
2021/10/09 13:45:34;;;;;;;;;;;;;;;20.70;22.24;101557.60;1384855;89;20240;-92
2021/10/09 13:48:06;;;;;;;;;;;;;;;20.38;22.68;101561.47;1386189;89;20263;-90
2021/10/09 13:50:37;;;;;;;;;;;;;;;20.02;23.46;101553.27;1386634;89;20353;-89
2021/10/09 13:53:00;;;;;;;;;;;;;;;19.15;24.08;101557.58;1387318;89;20352;-90
2021/10/09 13:55:27;;;;;;;;;;;;;;;19.21;24.39;101551.50;1388036;89;20240;-91
2021/10/09 13:57:53;;;;;;;;;;;;;;;18.64;24.89;101551.75;1387768;89;20326;-89
2021/10/09 14:00:19;;;;;;;;;;;;;;;18.65;25.27;101552.09;1391087;89;20263;-90
2021/10/09 14:02:46;;;;;;;;;;;;;;;18.45;25.70;101549.81;1374768;90;20992;-90
2021/10/09 14:05:12;;;;;;;;;;;;;;;18.61;25.21;101553.44;1383552;89;20263;-91
2021/10/09 14:07:38;;;;;;;;;;;;;;;18.64;25.32;101548.59;1383132;89;20403;-92
2021/10/09 14:10:05;;;;;;;;;;;;;;;18.83;25.61;101554.56;1383554;89;20286;-91
2021/10/09 14:12:32;;;;;;;;;;;;;;;19.09;26.24;101544.36;1382141;89;20255;-92
2021/10/09 14:14:59;;;;;;;;;;;;;;;19.28;25.78;101550.31;1372132;90;20800;-91
2021/10/09 14:17:28;;;;;;;;;;;;;;;19.05;24.94;101549.77;1374495;90;20297;-91
2021/10/09 14:19:54;;;;;;;;;;;;;;;19.20;25.24;101549.84;1384819;89;20248;-92
2021/10/09 14:22:22;;;;;;;;;;;;;;;19.73;25.72;101546.80;1383704;89;20355;-92
2021/10/09 14:24:48;;;;;;;;;;;;;;;19.91;24.60;101544.30;1383732;89;21145;-91
2021/10/09 14:27:14;;;;;;;;;;;;;;;20.17;24.13;101543.39;1383049;89;20309;-92
2021/10/09 14:29:40;;;;;;;;;;;;;;;20.29;23.86;101544.59;1382941;89;20249;-90
2021/10/09 14:32:06;;;;;;;;;;;;;;;20.43;24.01;101541.59;1383039;89;20234;-93
2021/10/09 14:34:32;;;;;;;;;;;;;;;20.76;23.44;101549.30;1382772;89;20241;-92
2021/10/09 14:36:58;;;;;;;;;;;;;;;20.91;23.14;101543.89;1382437;89;20263;-93
2021/10/09 14:39:26;;;;;;;;;;;;;;;21.22;23.13;101541.45;1383157;89;20335;-92
2021/10/09 14:41:52;;;;;;;;;;;;;;;21.04;23.14;101541.87;1382866;89;20241;-90
2021/10/09 14:44:18;;;;;;;;;;;;;;;20.98;23.28;101543.47;1382910;89;20322;-92
2021/10/09 14:49:35;;;;;;;;;;;;;;;21.02;22.96;101542.57;1382959;89;20256;-90
2021/10/09 14:54:59;;;;;;;;;;;;;;;20.54;24.00;101538.13;1400325;88;20260;-90
2021/10/09 15:18:54;;;;;;;;;;;;;;;17.56;29.19;101547.53;1349944;92;20788;-92
2021/10/09 15:21:20;;;;;;;;;;;;;;;17.42;30.34;101540.66;1349570;92;20366;-91
2021/10/09 15:23:46;;;;;;;;;;;;;;;17.33;29.97;101550.52;1368817;88;20258;-90
2021/10/09 15:26:12;;;;;;;;;;;;;;;17.06;30.34;101547.59;1404566;88;20284;-92
2021/10/09 15:28:38;;;;;;;;;;;;;;;16.86;31.07;101552.37;1404547;88;20210;-91
2021/10/09 15:31:05;;;;;;;;;;;;;;;16.43;31.73;101547.48;1404641;87;20217;-90
2021/10/09 15:33:31;;;;;;;;;;;;;;;15.85;32.66;101542.73;1404733;87;20284;-91
2021/10/09 15:35:57;;;;;;;;;;;;;;;15.43;33.82;101553.53;1404317;88;20298;-91
2021/10/09 15:38:23;;;;;;;;;;;;;;;15.04;34.67;101560.94;1404495;88;20291;-92
2021/10/09 15:40:49;;;;;;;;;;;;;;;14.61;35.85;101552.58;1404773;88;20239;-91
2021/10/09 15:43:15;;;;;;;;;;;;;;;14.23;36.88;101555.69;1412658;87;20187;-89
2021/10/09 15:45:41;;;;;;;;;;;;;;;13.93;36.94;101555.41;1413157;87;20248;-92
2021/10/09 15:48:08;;;;;;;;;;;;;;;13.68;38.03;101555.98;1412670;86;20232;-86
2021/10/09 15:50:37;;;;;;;;;;;;;;;13.34;39.85;101556.88;1380089;86;20207;31
2021/10/09 15:53:05;;;;;;;;;;;;;;;13.12;38.93;101557.91;1385959;86;20331;31
2021/10/09 16:00:34;;;;;;;;;;;;;;;12.36;41.58;101560.98;1392721;86;20218;-88
2021/10/09 16:03:02;;;;;;;;;;;;;;;12.14;42.29;101565.48;1377503;87;20298;-88
2021/10/09 16:05:31;;;;;;;;;;;;;;;11.97;41.90;101560.77;1386751;85;20324;31
2021/10/09 16:08:02;;;;;;;;;;;;;;;11.80;43.00;101563.47;1373899;88;20367;31
2021/10/09 16:10:29;;;;;;;;;;;;;;;11.62;44.30;101575.09;1377667;87;21518;-89
2021/10/09 16:12:55;;;;;;;;;;;;;;;11.45;44.93;101576.96;1366908;91;20358;-91